Time;durP1;ratioP1;P1;durP2;ratioP2;P2;SDS_P1;SDS_P2;PMS_P1;PMS_P2;Temp;Humidity;BMP_temperature;BMP_pressure;BME280_temperature;BME280_humidity;BME280_pressure;Samples;Min_cycle;Max_cycle;Signal;HPM_P1;HPM_P2
2022/06/28 00:01:05;;;;;;;16.10;12.03;;;15.70;99.90;;;;;;5038318;28;20211;-39
2022/06/28 00:03:32;;;;;;;14.23;11.90;;;15.70;99.90;;;;;;5039247;28;20215;-40
2022/06/28 00:05:59;;;;;;;13.37;11.97;;;15.70;99.90;;;;;;5042943;28;20210;-41
2022/06/28 00:08:26;;;;;;;13.70;11.53;;;15.70;99.90;;;;;;5026532;28;20199;-40
2022/06/28 00:10:53;;;;;;;16.03;13.17;;;15.70;99.90;;;;;;5032192;28;20222;-39
2022/06/28 00:13:21;;;;;;;15.17;12.70;;;15.70;99.90;;;;;;5042042;28;20269;-39
2022/06/28 00:16:05;;;;;;;17.93;13.50;;;15.70;99.90;;;;;;5046445;28;20207;-42
2022/06/28 00:18:32;;;;;;;14.80;13.20;;;15.70;99.90;;;;;;5043979;28;20320;-40
2022/06/28 00:20:59;;;;;;;17.27;14.37;;;15.70;99.90;;;;;;5043756;28;20564;-39
2022/06/28 00:23:26;;;;;;;17.53;13.20;;;15.70;99.90;;;;;;5031256;28;20215;-42
2022/06/28 00:25:52;;;;;;;17.53;14.67;;;15.70;99.90;;;;;;5032422;28;20221;-43
2022/06/28 00:28:20;;;;;;;16.87;13.83;;;15.80;99.90;;;;;;5042417;28;20651;-39
2022/06/28 00:30:47;;;;;;;18.37;14.03;;;15.80;99.90;;;;;;5045452;28;20227;-39
2022/06/28 00:33:15;;;;;;;19.10;12.80;;;15.80;99.90;;;;;;5043380;28;20219;-40
2022/06/28 00:35:43;;;;;;;19.47;13.70;;;15.80;99.90;;;;;;5043966;28;20675;-43
2022/06/28 00:38:10;;;;;;;15.53;13.93;;;15.70;99.90;;;;;;5043128;28;20203;-40
2022/06/28 00:40:44;;;;;;;21.47;13.10;;;15.80;99.90;;;;;;5023952;28;20209;-42
2022/06/28 00:43:11;;;;;;;13.80;12.30;;;15.80;99.90;;;;;;5043911;28;20233;-40
2022/06/28 00:45:41;;;;;;;14.20;11.23;;;15.80;99.90;;;;;;5044937;28;20192;-41
2022/06/28 00:48:10;;;;;;;13.43;11.23;;;15.80;99.90;;;;;;5044267;28;20245;-41
2022/06/28 00:50:38;;;;;;;13.03;10.87;;;15.80;99.90;;;;;;5044375;28;20241;-42
2022/06/28 00:53:07;;;;;;;12.40;10.87;;;15.80;99.90;;;;;;5036222;28;20220;-41
2022/06/28 00:55:34;;;;;;;13.50;11.07;;;15.80;99.90;;;;;;5039048;28;20195;-40
2022/06/28 00:58:01;;;;;;;15.43;10.63;;;15.80;99.90;;;;;;5030164;28;20753;-41
2022/06/28 01:00:28;;;;;;;13.13;11.60;;;15.80;99.90;;;;;;5036370;28;20266;-40
2022/06/28 01:02:56;;;;;;;14.53;10.57;;;15.80;99.90;;;;;;5025287;28;20246;-41
2022/06/28 01:05:24;;;;;;;12.77;10.40;;;15.80;99.90;;;;;;5022709;28;20382;-41
2022/06/28 01:07:51;;;;;;;11.63;9.67;;;15.70;99.90;;;;;;5044395;28;20573;-40
2022/06/28 01:10:18;;;;;;;13.13;9.93;;;15.70;99.90;;;;;;5035323;28;20231;-40
2022/06/28 01:12:45;;;;;;;10.93;9.33;;;15.70;99.90;;;;;;5028985;28;20233;-41
2022/06/28 01:15:12;;;;;;;10.27;9.33;;;15.70;99.90;;;;;;5041949;28;20251;-40
2022/06/28 01:17:47;;;;;;;10.13;8.67;;;15.70;99.90;;;;;;5044567;28;20980;-40
2022/06/28 01:20:46;;;;;;;9.57;8.33;;;15.70;99.90;;;;;;5035625;28;20708;-40
2022/06/28 01:23:31;;;;;;;13.63;9.10;;;15.70;99.90;;;;;;5034337;28;20935;-42
2022/06/28 01:26:30;;;;;;;10.20;9.10;;;15.60;99.90;;;;;;5027210;28;20203;-44
2022/06/28 01:28:57;;;;;;;12.07;9.13;;;15.60;99.90;;;;;;5023871;28;20203;-42
2022/06/28 01:31:34;;;;;;;9.93;9.00;;;15.60;99.90;;;;;;5043010;28;20288;-41
2022/06/28 01:34:02;;;;;;;12.10;9.63;;;15.60;99.90;;;;;;5040526;28;20203;-41
2022/06/28 01:36:29;;;;;;;13.17;9.93;;;15.60;99.90;;;;;;5045455;28;20230;-40
2022/06/28 01:39:00;;;;;;;12.73;11.13;;;15.60;99.90;;;;;;5032299;28;20231;-40
2022/06/28 01:44:20;;;;;;;13.63;11.50;;;15.60;99.90;;;;;;5025935;28;20360;-39
2022/06/28 01:47:17;;;;;;;12.77;11.47;;;15.50;99.90;;;;;;5035736;28;20922;-39
2022/06/28 01:50:05;;;;;;;19.07;13.27;;;15.50;99.90;;;;;;5041366;28;20231;-40
2022/06/28 01:52:41;;;;;;;17.37;12.83;;;15.50;99.90;;;;;;5044141;28;20226;-42
2022/06/28 01:55:29;;;;;;;15.70;13.73;;;15.50;99.90;;;;;;5043229;28;20203;-40
2022/06/28 01:57:57;;;;;;;15.53;13.67;;;15.50;99.90;;;;;;5033326;28;20203;-41
2022/06/28 02:00:24;;;;;;;20.00;14.63;;;15.40;99.90;;;;;;5038298;28;20191;-40
2022/06/28 02:02:56;;;;;;;16.07;13.90;;;15.40;99.90;;;;;;5022960;28;20228;-41
2022/06/28 02:05:30;;;;;;;19.50;14.30;;;15.40;99.90;;;;;;5045094;28;20261;-43
2022/06/28 02:07:58;;;;;;;17.60;14.37;;;15.30;99.90;;;;;;5041536;28;20207;-40
2022/06/28 02:10:30;;;;;;;19.70;14.40;;;15.30;99.90;;;;;;5043278;28;20226;-39
2022/06/28 02:12:59;;;;;;;19.30;14.40;;;15.30;99.90;;;;;;5041042;28;20591;-44
2022/06/28 02:15:27;;;;;;;18.23;13.60;;;15.30;99.90;;;;;;5029667;28;20211;-40
2022/06/28 02:17:58;;;;;;;17.33;13.13;;;15.30;99.90;;;;;;5037655;28;20202;-40
2022/06/28 02:20:25;;;;;;;16.27;12.93;;;15.30;99.90;;;;;;5042522;28;20199;-41
2022/06/28 02:22:52;;;;;;;15.90;13.23;;;15.20;99.90;;;;;;5042401;28;20223;-42
2022/06/28 02:25:20;;;;;;;13.87;12.00;;;15.20;99.90;;;;;;5041329;28;20195;-37
2022/06/28 02:27:48;;;;;;;17.70;12.10;;;15.30;99.90;;;;;;5044923;28;20202;-39
2022/06/28 02:30:16;;;;;;;19.60;12.70;;;15.30;99.90;;;;;;5022908;28;20223;-40
2022/06/28 02:32:43;;;;;;;16.23;12.63;;;15.30;99.90;;;;;;5043557;28;20229;-38
2022/06/28 02:40:37;;;;;;;18.20;13.63;;;15.30;99.90;;;;;;5041763;28;20191;-38
2022/06/28 02:43:05;;;;;;;16.60;13.47;;;15.30;99.90;;;;;;5041242;28;20285;-38
2022/06/28 02:45:34;;;;;;;19.37;14.20;;;15.20;99.90;;;;;;5029947;28;20636;-38
2022/06/28 02:48:01;;;;;;;19.60;14.00;;;15.30;99.90;;;;;;5040284;28;20676;-38
2022/06/28 02:50:30;;;;;;;18.00;14.17;;;15.30;99.90;;;;;;5042976;28;20231;-38
2022/06/28 02:52:57;;;;;;;16.93;13.73;;;15.30;99.90;;;;;;5042082;28;20215;-41
2022/06/28 02:55:25;;;;;;;17.63;13.90;;;15.30;99.90;;;;;;5042955;28;20856;-40
2022/06/28 02:57:52;;;;;;;16.27;12.40;;;15.20;99.90;;;;;;5042137;28;20207;-39
2022/06/28 03:00:20;;;;;;;13.93;12.43;;;15.30;99.90;;;;;;5026039;28;20338;-41
2022/06/28 03:02:49;;;;;;;16.77;14.57;;;15.30;99.90;;;;;;5042429;28;20219;-40
2022/06/28 03:05:19;;;;;;;16.63;13.90;;;15.30;99.90;;;;;;5041280;28;20183;-39
2022/06/28 03:07:47;;;;;;;16.43;13.33;;;15.30;99.90;;;;;;5042872;28;20215;-40
2022/06/28 03:10:15;;;;;;;15.77;13.40;;;15.30;99.90;;;;;;5034421;28;20334;-39
2022/06/28 03:12:42;;;;;;;18.60;14.90;;;15.30;99.90;;;;;;5043701;28;20223;-39
2022/06/28 03:15:11;;;;;;;16.40;12.77;;;15.20;99.90;;;;;;5024070;28;20204;-41
2022/06/28 03:17:40;;;;;;;14.73;12.77;;;15.20;99.90;;;;;;5042170;28;20202;-39
2022/06/28 03:20:08;;;;;;;15.33;13.00;;;15.20;99.90;;;;;;5038605;28;20852;-39
2022/06/28 03:22:36;;;;;;;15.70;14.07;;;15.20;99.90;;;;;;5042540;28;20227;-40
2022/06/28 03:25:04;;;;;;;17.20;13.60;;;15.20;99.90;;;;;;5040011;28;20245;-39
2022/06/28 03:27:31;;;;;;;17.67;13.27;;;15.20;99.90;;;;;;5042534;28;20293;-41
2022/06/28 03:29:58;;;;;;;17.30;12.70;;;15.10;99.90;;;;;;5041356;28;20223;-38
2022/06/28 03:32:28;;;;;;;14.43;12.40;;;15.20;99.90;;;;;;5028788;28;20242;-42
2022/06/28 03:34:57;;;;;;;15.10;12.23;;;15.10;99.90;;;;;;5036329;28;20196;-41
2022/06/28 03:37:25;;;;;;;13.83;12.40;;;15.10;99.90;;;;;;5030876;28;21356;-42
2022/06/28 03:39:57;;;;;;;13.57;12.17;;;15.10;99.90;;;;;;5052512;28;20298;-39
2022/06/28 03:42:24;;;;;;;14.87;12.53;;;15.10;99.90;;;;;;5040349;28;20514;-39
2022/06/28 03:44:53;;;;;;;16.87;12.60;;;15.00;99.90;;;;;;5040195;28;20215;-40
2022/06/28 03:47:20;;;;;;;16.07;12.53;;;15.00;99.90;;;;;;5024980;28;20290;-39
2022/06/28 03:50:27;;;;;;;17.10;13.00;;;15.10;99.90;;;;;;5042011;28;20211;-39
2022/06/28 03:53:02;;;;;;;18.63;12.97;;;15.00;99.90;;;;;;5040325;28;20717;-39
2022/06/28 03:55:48;;;;;;;15.27;12.80;;;15.10;99.90;;;;;;5043085;28;20564;-41
2022/06/28 03:58:15;;;;;;;18.10;13.13;;;15.10;99.90;;;;;;5039088;28;20191;-39
2022/06/28 04:00:41;;;;;;;20.03;14.03;;;15.10;99.90;;;;;;5029938;28;20215;-41
2022/06/28 04:03:09;;;;;;;19.57;13.80;;;15.20;99.90;;;;;;5026582;28;20237;-40
2022/06/28 04:05:42;;;;;;;17.60;12.90;;;15.20;99.90;;;;;;5031738;28;20204;-40
2022/06/28 04:08:10;;;;;;;13.97;12.47;;;15.20;99.90;;;;;;5024061;28;20672;-40
2022/06/28 04:10:45;;;;;;;17.10;12.07;;;15.30;99.90;;;;;;5033065;28;20292;-40
2022/06/28 04:13:17;;;;;;;15.73;13.00;;;15.40;99.90;;;;;;5039750;28;20231;-39
2022/06/28 04:15:44;;;;;;;15.83;12.27;;;15.40;99.90;;;;;;5041341;28;20191;-40
2022/06/28 04:18:15;;;;;;;15.27;12.77;;;15.40;99.90;;;;;;5018760;28;20576;-40
2022/06/28 04:21:18;;;;;;;16.67;12.80;;;15.30;99.90;;;;;;5035981;28;20623;-41
2022/06/28 04:23:49;;;;;;;15.47;12.40;;;15.40;99.90;;;;;;5029101;28;20233;-42
2022/06/28 04:26:16;;;;;;;14.87;11.50;;;15.40;99.90;;;;;;5036628;28;20608;-40
2022/06/28 04:28:43;;;;;;;13.77;11.97;;;15.50;99.90;;;;;;5037213;28;20219;-39
2022/06/28 04:31:15;;;;;;;14.10;11.80;;;15.50;99.90;;;;;;5039422;28;20219;-39
2022/06/28 04:33:43;;;;;;;13.63;11.57;;;15.50;99.90;;;;;;5016662;28;20354;-40
2022/06/28 04:36:12;;;;;;;15.13;12.27;;;15.60;99.90;;;;;;5040906;28;20278;-41
2022/06/28 04:38:44;;;;;;;14.27;12.77;;;15.70;99.90;;;;;;5030887;28;20200;-40
2022/06/28 04:41:15;;;;;;;15.80;12.30;;;15.70;99.90;;;;;;5040224;28;20200;-41
2022/06/28 04:43:56;;;;;;;17.40;11.30;;;15.70;99.90;;;;;;5034659;28;20217;-40
2022/06/28 04:46:28;;;;;;;15.27;11.60;;;15.80;99.90;;;;;;5034968;28;20891;-40
2022/06/28 04:48:57;;;;;;;14.40;12.87;;;15.80;99.90;;;;;;5021933;28;20292;-39
2022/06/28 04:51:33;;;;;;;16.03;12.73;;;15.90;99.90;;;;;;5038174;28;20310;-39
2022/06/28 04:54:02;;;;;;;15.93;12.40;;;15.90;99.90;;;;;;5027903;28;20285;-39
2022/06/28 04:56:33;;;;;;;14.97;12.10;;;15.90;99.90;;;;;;5039070;28;20611;-39
2022/06/28 04:59:00;;;;;;;17.27;11.93;;;16.00;99.90;;;;;;5038504;28;20207;-40
2022/06/28 05:01:26;;;;;;;13.63;11.77;;;16.00;99.90;;;;;;5036238;28;20678;-40
2022/06/28 05:03:54;;;;;;;15.33;11.90;;;16.00;99.90;;;;;;5040012;28;20234;-39
2022/06/28 05:06:40;;;;;;;15.00;12.40;;;16.10;99.90;;;;;;5028860;28;20226;-42
2022/06/28 05:09:10;;;;;;;14.67;11.93;;;16.10;99.90;;;;;;5018748;28;20202;-42
2022/06/28 05:11:37;;;;;;;14.40;11.77;;;16.10;99.90;;;;;;5044692;28;20223;-44
2022/06/28 05:14:15;;;;;;;13.27;12.03;;;16.10;99.90;;;;;;5036097;28;20367;-43
2022/06/28 05:16:42;;;;;;;13.40;11.70;;;16.10;99.90;;;;;;5043551;28;20271;-42
2022/06/28 05:19:10;;;;;;;13.03;11.37;;;16.10;99.90;;;;;;5032309;28;20286;-40
2022/06/28 05:21:38;;;;;;;14.60;11.27;;;16.20;99.90;;;;;;5028984;28;20243;-42
2022/06/28 05:24:06;;;;;;;13.43;11.33;;;16.20;99.90;;;;;;5030592;28;20277;-40
2022/06/28 05:26:34;;;;;;;14.27;12.83;;;16.20;99.90;;;;;;5038334;28;20230;-39
2022/06/28 05:29:12;;;;;;;14.80;11.70;;;16.20;99.90;;;;;;5027412;28;20207;-40
2022/06/28 05:31:40;;;;;;;14.00;12.50;;;16.20;99.90;;;;;;5044310;28;20303;-41
2022/06/28 05:34:07;;;;;;;20.07;14.50;;;16.20;99.90;;;;;;5021625;28;20980;-39
2022/06/28 05:36:37;;;;;;;16.07;12.93;;;16.20;99.90;;;;;;5029782;28;20211;-39
2022/06/28 05:39:03;;;;;;;16.03;12.80;;;16.20;99.90;;;;;;5026204;28;20203;-41
2022/06/28 05:41:32;;;;;;;16.77;13.93;;;16.20;99.90;;;;;;5029069;28;20200;-39
2022/06/28 05:44:01;;;;;;;19.07;15.00;;;16.30;99.90;;;;;;5031308;28;20286;-39
2022/06/28 05:46:28;;;;;;;18.10;14.80;;;16.30;99.90;;;;;;5034049;28;20219;-41
2022/06/28 05:48:55;;;;;;;19.33;16.00;;;16.40;99.90;;;;;;5035943;28;20203;-42
2022/06/28 05:51:22;;;;;;;18.03;16.03;;;16.40;99.90;;;;;;5022926;28;20308;-39
2022/06/28 05:53:50;;;;;;;17.53;14.87;;;16.40;99.90;;;;;;5042287;28;20704;-44
2022/06/28 05:56:17;;;;;;;19.53;14.90;;;16.30;99.90;;;;;;5028839;28;20673;-40
2022/06/28 05:58:44;;;;;;;17.67;14.53;;;16.30;99.90;;;;;;5033983;28;20215;-41
2022/06/28 06:01:11;;;;;;;19.53;14.87;;;16.40;99.90;;;;;;5028150;28;20199;-40
2022/06/28 06:03:38;;;;;;;16.17;14.47;;;16.40;99.90;;;;;;5031331;28;20706;-39
2022/06/28 06:06:05;;;;;;;17.20;15.40;;;16.50;99.90;;;;;;5019102;28;20223;-40
2022/06/28 06:08:35;;;;;;;16.20;13.60;;;16.60;99.90;;;;;;5034667;28;20222;-43
2022/06/28 06:11:03;;;;;;;15.77;13.47;;;16.60;99.90;;;;;;5029873;28;20220;-40
2022/06/28 06:13:34;;;;;;;14.63;13.07;;;16.70;99.90;;;;;;5037109;28;20234;-40
2022/06/28 06:16:01;;;;;;;14.13;12.67;;;16.70;99.90;;;;;;5026072;28;20200;-42
2022/06/28 06:18:29;;;;;;;14.53;13.10;;;16.80;99.90;;;;;;5028861;28;20809;-43
2022/06/28 06:20:56;;;;;;;16.87;12.77;;;16.90;99.90;;;;;;5023900;28;20208;-43
2022/06/28 06:23:24;;;;;;;14.43;11.63;;;17.00;99.90;;;;;;5015478;28;20232;-40
2022/06/28 06:26:17;;;;;;;12.60;11.30;;;17.10;99.90;;;;;;5039202;28;20699;-40
2022/06/28 06:28:44;;;;;;;11.50;10.33;;;17.00;99.90;;;;;;5041296;28;20199;-42
2022/06/28 06:31:12;;;;;;;12.10;10.87;;;17.00;99.90;;;;;;5044924;28;20691;-39
2022/06/28 06:34:00;;;;;;;12.20;11.03;;;17.00;99.90;;;;;;5032996;28;20684;-43
2022/06/28 06:36:43;;;;;;;11.50;10.30;;;16.90;99.90;;;;;;5026037;28;20207;-42
2022/06/28 06:39:12;;;;;;;11.73;10.53;;;16.90;99.90;;;;;;5041811;28;20213;-40
2022/06/28 06:41:39;;;;;;;11.03;9.87;;;17.00;99.90;;;;;;5039739;28;20195;-40
2022/06/28 06:44:06;;;;;;;14.60;9.77;;;17.10;99.90;;;;;;5044122;28;21024;-42
2022/06/28 06:46:33;;;;;;;13.07;10.17;;;17.00;99.90;;;;;;5040692;28;20198;-39
2022/06/28 06:49:02;;;;;;;11.80;10.47;;;17.10;99.90;;;;;;5037393;28;20207;-39
2022/06/28 06:51:30;;;;;;;10.97;9.87;;;17.10;99.90;;;;;;5039177;28;20223;-40
2022/06/28 06:53:58;;;;;;;15.63;11.47;;;17.10;99.90;;;;;;5027724;28;20211;-39
2022/06/28 06:56:25;;;;;;;14.03;11.83;;;17.10;99.90;;;;;;5034148;28;20209;-41
2022/06/28 06:58:52;;;;;;;13.23;10.93;;;17.00;99.90;;;;;;5033601;28;20211;-40
2022/06/28 07:01:19;;;;;;;12.50;11.20;;;17.10;99.90;;;;;;5032618;28;20289;-44
2022/06/28 07:03:46;;;;;;;12.57;10.40;;;17.20;99.90;;;;;;5031898;28;20316;-39
2022/06/28 07:06:15;;;;;;;13.37;10.57;;;17.20;99.90;;;;;;5032128;28;20217;-40
2022/06/28 07:08:42;;;;;;;11.27;10.17;;;17.30;99.90;;;;;;5016197;28;20251;-41
2022/06/28 07:11:12;;;;;;;14.33;10.00;;;17.30;99.90;;;;;;5042288;28;20344;-40
2022/06/28 07:13:39;;;;;;;12.13;10.93;;;17.40;99.90;;;;;;5038296;28;20211;-40
2022/06/28 07:16:07;;;;;;;10.90;9.33;;;17.40;99.90;;;;;;5042805;28;20207;-40
2022/06/28 07:18:34;;;;;;;12.83;9.73;;;17.50;99.90;;;;;;5039419;28;20188;-41
2022/06/28 07:21:01;;;;;;;9.33;8.40;;;17.50;99.90;;;;;;5037594;28;20289;-42
2022/06/28 07:23:29;;;;;;;9.00;8.30;;;17.50;99.90;;;;;;5026793;28;20225;-41
2022/06/28 07:25:56;;;;;;;8.47;7.47;;;17.50;99.90;;;;;;5039272;28;20265;-40
2022/06/28 07:28:23;;;;;;;8.37;7.67;;;17.50;99.90;;;;;;5022280;28;20608;-42
2022/06/28 07:30:50;;;;;;;11.80;8.60;;;17.50;99.90;;;;;;5035213;28;20696;-41
2022/06/28 07:33:18;;;;;;;9.63;8.70;;;17.50;99.90;;;;;;5027641;28;20230;-38
2022/06/28 07:35:46;;;;;;;9.03;8.10;;;17.60;99.90;;;;;;5027035;28;20235;-43
2022/06/28 07:38:13;;;;;;;9.53;8.60;;;17.70;99.90;;;;;;5023598;28;20207;-39
2022/06/28 07:41:07;;;;;;;6.90;6.30;;;17.80;99.90;;;;;;5019657;28;20246;-42
2022/06/28 07:43:58;;;;;;;6.50;6.00;;;18.00;99.90;;;;;;5033772;28;20689;-42
2022/06/28 07:46:29;;;;;;;8.40;6.47;;;18.10;99.90;;;;;;5021475;28;20235;-43
2022/06/28 07:48:56;;;;;;;5.70;5.10;;;18.10;99.90;;;;;;5030282;28;20211;-40
2022/06/28 07:54:09;;;;;;;5.63;4.93;;;18.00;99.90;;;;;;5036874;28;20281;-41
2022/06/28 07:56:44;;;;;;;4.70;4.30;;;17.90;99.90;;;;;;5021288;28;20204;-38
2022/06/28 07:59:11;;;;;;;5.00;4.60;;;17.80;99.90;;;;;;5027734;28;20199;-40
2022/06/28 08:01:39;;;;;;;5.07;4.20;;;17.80;99.90;;;;;;5028543;28;20799;-40
2022/06/28 08:04:14;;;;;;;5.23;4.83;;;17.80;99.90;;;;;;5031052;28;20640;-39
2022/06/28 08:06:43;;;;;;;5.97;4.60;;;17.90;99.90;;;;;;5021747;28;20207;-41
2022/06/28 08:09:10;;;;;;;5.67;4.00;;;18.00;99.90;;;;;;5034156;28;20203;-39
2022/06/28 08:11:39;;;;;;;8.10;4.87;;;18.10;99.90;;;;;;5021105;28;20276;-38
2022/06/28 08:14:11;;;;;;;4.53;4.13;;;18.30;99.90;;;;;;5038550;28;20199;-39
2022/06/28 08:16:40;;;;;;;7.07;3.97;;;18.40;99.90;;;;;;5025733;28;20261;-40
2022/06/28 08:19:07;;;;;;;4.50;3.17;;;18.60;99.90;;;;;;5029881;28;20234;-41
2022/06/28 08:21:38;;;;;;;5.63;3.17;;;18.70;99.90;;;;;;5029600;28;21862;-43
2022/06/28 08:24:05;;;;;;;4.57;2.73;;;18.70;99.90;;;;;;5039680;28;20207;-41
2022/06/28 08:26:32;;;;;;;5.50;2.40;;;18.70;99.90;;;;;;5010101;28;20218;-38
2022/06/28 08:28:59;;;;;;;3.37;2.30;;;18.80;99.90;;;;;;5039220;28;20200;-40
2022/06/28 08:31:27;;;;;;;2.57;2.37;;;18.90;99.90;;;;;;5031446;28;20223;-39
2022/06/28 08:33:54;;;;;;;2.73;2.30;;;18.90;99.90;;;;;;5036140;28;20203;-39
2022/06/28 08:36:21;;;;;;;3.17;2.87;;;19.10;99.90;;;;;;5031979;28;20207;-38
2022/06/28 08:38:48;;;;;;;5.43;2.70;;;19.10;99.90;;;;;;5032950;28;20198;-41
2022/06/28 08:41:14;;;;;;;4.87;2.93;;;19.20;99.90;;;;;;5031897;28;20245;-38
2022/06/28 08:43:42;;;;;;;3.43;2.40;;;19.30;99.90;;;;;;5028777;28;20234;-39
2022/06/28 08:46:09;;;;;;;2.13;1.70;;;19.40;99.90;;;;;;5039247;28;20199;-38
2022/06/28 08:48:41;;;;;;;5.40;2.10;;;19.40;99.90;;;;;;5027523;28;20208;-38
2022/06/28 08:51:09;;;;;;;2.70;2.00;;;19.30;99.90;;;;;;5031767;28;20215;-38
2022/06/28 08:53:37;;;;;;;1.93;1.73;;;19.20;99.90;;;;;;5035854;28;20231;-38
2022/06/28 08:56:05;;;;;;;1.83;1.70;;;19.10;99.90;;;;;;5039720;28;20195;-39
2022/06/28 08:58:34;;;;;;;5.07;1.60;;;19.00;99.90;;;;;;5025012;28;20215;-39
2022/06/28 09:01:01;;;;;;;4.70;1.63;;;18.90;99.90;;;;;;5039219;28;20579;-39
2022/06/28 09:03:29;;;;;;;1.50;1.40;;;18.90;99.90;;;;;;5036662;28;20211;-43
2022/06/28 09:05:57;;;;;;;5.20;1.67;;;19.10;99.90;;;;;;5042673;28;20234;-39
2022/06/28 09:08:24;;;;;;;4.03;2.20;;;19.20;99.90;;;;;;5041991;28;20194;-40
2022/06/28 09:10:51;;;;;;;1.93;1.57;;;19.30;99.90;;;;;;5040044;28;20203;-38
2022/06/28 09:13:20;;;;;;;3.30;1.90;;;19.50;99.90;;;;;;5026826;28;20309;-40
2022/06/28 09:15:53;;;;;;;2.77;1.30;;;19.60;99.90;;;;;;5046141;28;20206;-39
2022/06/28 09:18:22;;;;;;;5.33;1.47;;;19.70;99.90;;;;;;5042001;28;20253;-38
2022/06/28 09:20:53;;;;;;;1.93;1.07;;;19.90;99.90;;;;;;5046281;28;20207;-38
2022/06/28 09:23:26;;;;;;;3.13;1.70;;;19.90;99.90;;;;;;5041609;28;20208;-39
2022/06/28 09:25:54;;;;;;;1.83;1.07;;;20.00;99.90;;;;;;5040110;28;20211;-41
2022/06/28 09:28:27;;;;;;;1.73;1.20;;;20.10;99.90;;;;;;5042253;28;20839;-39
2022/06/28 09:30:53;;;;;;;1.93;0.93;;;20.00;99.90;;;;;;5027316;28;20304;-41
2022/06/28 09:33:27;;;;;;;2.40;0.87;;;20.10;99.90;;;;;;5041286;28;20219;-40
2022/06/28 09:35:54;;;;;;;2.93;1.13;;;20.10;99.90;;;;;;5044057;28;20578;-39
2022/06/28 09:38:32;;;;;;;3.93;0.80;;;20.00;99.90;;;;;;5042029;28;21007;-38
2022/06/28 09:40:59;;;;;;;1.53;0.80;;;20.10;99.90;;;;;;5033723;28;20215;-40
2022/06/28 09:43:32;;;;;;;2.30;0.70;;;20.10;99.90;;;;;;5042352;28;20218;-41
2022/06/28 09:46:02;;;;;;;2.30;0.70;;;20.20;99.90;;;;;;5030017;28;20222;-38
2022/06/28 09:48:35;;;;;;;2.93;0.80;;;20.20;99.90;;;;;;5043273;28;20187;-39
2022/06/28 09:51:03;;;;;;;3.23;0.80;;;20.20;99.90;;;;;;5044377;28;20196;-38
2022/06/28 09:53:33;;;;;;;2.17;0.90;;;20.20;99.90;;;;;;5043177;28;20218;-40
2022/06/28 09:56:05;;;;;;;2.83;0.87;;;20.10;99.90;;;;;;5037726;28;20222;-39
2022/06/28 09:58:32;;;;;;;1.50;0.57;;;20.20;99.90;;;;;;5043925;28;20199;-40
2022/06/28 10:01:00;;;;;;;1.23;0.70;;;20.20;99.90;;;;;;5029282;28;20286;-38
2022/06/28 10:03:28;;;;;;;1.63;0.70;;;20.30;99.90;;;;;;5042398;28;20214;-38
2022/06/28 10:05:55;;;;;;;1.23;0.53;;;20.40;99.90;;;;;;5045498;28;20203;-39
2022/06/28 10:08:23;;;;;;;3.73;1.00;;;20.50;99.90;;;;;;5037730;28;21001;-40
2022/06/28 10:10:52;;;;;;;2.10;0.70;;;20.60;99.90;;;;;;5044489;28;20264;-39
2022/06/28 10:16:14;;;;;;;0.80;0.50;;;20.70;99.90;;;;;;5024020;28;20290;-41
2022/06/28 10:18:42;;;;;;;0.90;0.60;;;20.70;99.90;;;;;;5044981;28;20203;-41
2022/06/28 10:21:09;;;;;;;1.83;0.77;;;20.50;99.90;;;;;;5042668;28;20203;-39
2022/06/28 10:23:40;;;;;;;0.88;0.40;;;20.50;99.90;;;;;;5043904;28;20222;-38
2022/06/28 10:26:12;;;;;;;1.85;0.50;;;20.70;99.90;;;;;;5039202;28;20277;-39
2022/06/28 10:28:42;;;;;;;1.67;0.90;;;20.90;99.50;;;;;;5043915;28;20273;-38
2022/06/28 10:31:40;;;;;;;0.80;0.40;;;21.00;99.30;;;;;;5027199;28;20222;-38
2022/06/28 10:34:10;;;;;;;1.50;0.30;;;21.00;97.70;;;;;;5037686;28;20195;-38
2022/06/28 10:36:52;;;;;;;0.70;0.65;;;20.90;98.40;;;;;;5044550;28;20211;-41
2022/06/28 10:39:22;;;;;;;0.68;0.50;;;20.90;99.00;;;;;;5040037;28;20191;-39
2022/06/28 10:41:52;;;;;;;1.73;0.82;;;20.90;98.70;;;;;;5038336;28;20242;-38
2022/06/28 10:44:21;;;;;;;0.90;0.60;;;20.80;99.10;;;;;;5040493;28;20203;-40
2022/06/28 10:46:57;;;;;;;3.42;0.50;;;20.90;98.60;;;;;;5029459;28;20207;-39
2022/06/28 10:49:24;;;;;;;1.65;0.52;;;21.00;98.00;;;;;;5041105;28;20977;-39
2022/06/28 10:52:13;;;;;;;0.60;0.40;;;21.00;98.50;;;;;;5034288;28;20274;-41
2022/06/28 10:54:43;;;;;;;1.13;0.68;;;20.90;98.00;;;;;;5038832;28;20237;-39
2022/06/28 10:57:22;;;;;;;3.35;0.90;;;21.00;98.50;;;;;;5035364;28;20215;-37
2022/06/28 10:59:51;;;;;;;2.00;0.75;;;21.10;98.40;;;;;;5044359;28;20210;-39
2022/06/28 11:02:18;;;;;;;0.93;0.57;;;21.20;98.00;;;;;;5023796;28;20207;-38
2022/06/28 11:04:46;;;;;;;1.60;0.60;;;21.30;97.60;;;;;;5043895;28;20665;-39
2022/06/28 11:07:24;;;;;;;0.45;0.35;;;21.40;96.80;;;;;;5040494;28;20300;-40
2022/06/28 11:10:11;;;;;;;1.40;0.50;;;21.30;95.30;;;;;;5040676;28;20203;-39
2022/06/28 11:12:41;;;;;;;1.85;0.60;;;21.40;96.20;;;;;;5034652;28;20224;-38
2022/06/28 11:15:10;;;;;;;1.80;0.43;;;21.70;96.40;;;;;;5041538;28;20668;-41
2022/06/28 11:17:40;;;;;;;1.55;0.90;;;21.70;96.00;;;;;;5028432;28;20219;-38
2022/06/28 11:20:09;;;;;;;0.63;0.50;;;21.70;95.70;;;;;;5041546;28;20203;-39
2022/06/28 11:22:40;;;;;;;1.35;0.65;;;21.70;95.30;;;;;;5042928;28;20708;-39
2022/06/28 11:25:11;;;;;;;0.88;0.50;;;21.70;96.00;;;;;;5040839;28;20203;-40
2022/06/28 11:27:45;;;;;;;2.10;0.60;;;21.80;96.10;;;;;;5043574;28;20214;-40
2022/06/28 11:30:14;;;;;;;0.95;0.60;;;21.90;96.30;;;;;;5030676;28;20239;-39
2022/06/28 11:32:43;;;;;;;1.17;0.60;;;21.90;95.90;;;;;;5028704;28;20688;-41
2022/06/28 11:35:12;;;;;;;2.03;0.70;;;21.80;96.30;;;;;;5040162;28;20230;-39
2022/06/28 11:37:53;;;;;;;3.25;0.55;;;21.80;96.00;;;;;;5043388;28;20253;-38
2022/06/28 11:40:22;;;;;;;3.35;0.70;;;22.00;96.20;;;;;;5034922;28;20192;-40
2022/06/28 11:43:03;;;;;;;1.23;0.68;;;22.10;96.00;;;;;;5043385;28;20227;-40
2022/06/28 11:45:30;;;;;;;0.82;0.75;;;22.30;95.30;;;;;;5035000;28;20274;-40
2022/06/28 11:48:03;;;;;;;1.35;0.70;;;22.50;95.20;;;;;;5041324;28;20203;-39
2022/06/28 11:50:39;;;;;;;0.95;0.50;;;22.60;94.30;;;;;;5033536;28;20214;-38
2022/06/28 11:53:06;;;;;;;3.25;2.15;;;22.80;94.60;;;;;;5041033;28;20210;-41
2022/06/28 11:55:40;;;;;;;1.88;0.80;;;23.00;94.10;;;;;;5030314;28;20569;-41
2022/06/28 11:58:15;;;;;;;2.10;0.85;;;23.10;92.60;;;;;;5040802;28;20207;-39
2022/06/28 12:01:01;;;;;;;1.23;0.40;;;22.80;92.20;;;;;;5023301;28;20603;-40
2022/06/28 12:03:28;;;;;;;1.63;0.75;;;22.90;92.30;;;;;;5042938;28;20234;-39
2022/06/28 12:05:57;;;;;;;2.40;0.63;;;22.90;92.40;;;;;;5023508;28;20209;-38
2022/06/28 12:08:43;;;;;;;0.50;0.50;;;22.90;93.00;;;;;;5042032;28;20684;-39
2022/06/28 12:11:29;;;;;;;0.90;0.68;;;22.60;93.10;;;;;;5040707;28;20199;-39
2022/06/28 12:13:58;;;;;;;3.00;0.80;;;22.40;92.10;;;;;;5039140;28;20222;-39
2022/06/28 12:16:29;;;;;;;3.85;1.00;;;22.20;93.50;;;;;;5037216;28;20203;-42
2022/06/28 12:18:57;;;;;;;2.78;0.85;;;22.20;93.90;;;;;;5039243;28;20722;-41
2022/06/28 12:21:24;;;;;;;4.13;0.73;;;22.40;94.10;;;;;;5028389;28;20210;-41
2022/06/28 12:23:53;;;;;;;1.25;0.50;;;22.60;93.40;;;;;;5039277;28;20214;-38
2022/06/28 12:26:21;;;;;;;2.22;0.88;;;22.80;91.90;;;;;;5043247;28;20200;-41
2022/06/28 12:28:48;;;;;;;1.30;0.47;;;22.90;93.20;;;;;;5040335;28;20199;-41
2022/06/28 12:31:17;;;;;;;1.70;0.50;;;23.10;92.10;;;;;;5042271;28;20202;-39
2022/06/28 12:33:43;;;;;;;0.70;0.50;;;23.10;91.90;;;;;;5034998;28;20231;-39
2022/06/28 12:36:10;;;;;;;1.50;1.00;;;23.10;91.90;;;;;;5011855;28;20561;-45
2022/06/28 12:38:37;;;;;;;0.70;0.70;;;23.10;91.70;;;;;;5035022;28;20860;-40
2022/06/28 12:41:04;;;;;;;1.35;0.68;;;22.90;90.10;;;;;;5036138;28;20290;-38
2022/06/28 12:43:30;;;;;;;4.30;0.85;;;22.90;90.70;;;;;;5029964;28;20685;-38
2022/06/28 12:45:57;;;;;;;2.10;0.70;;;22.90;90.40;;;;;;5036610;28;20195;-39
2022/06/28 12:48:25;;;;;;;1.83;0.70;;;22.90;90.60;;;;;;5034992;28;20202;-39
2022/06/28 12:50:52;;;;;;;1.15;0.60;;;22.90;90.60;;;;;;5021220;28;20219;-38
2022/06/28 12:53:20;;;;;;;2.80;0.60;;;22.90;90.00;;;;;;5040806;28;20215;-38
2022/06/28 12:55:47;;;;;;;1.42;0.55;;;22.70;90.50;;;;;;5033917;28;20196;-40
2022/06/28 12:58:14;;;;;;;2.75;0.75;;;23.00;91.00;;;;;;5042200;28;20200;-39
2022/06/28 13:00:41;;;;;;;0.77;0.63;;;23.60;91.30;;;;;;5030661;28;20918;-40
2022/06/28 13:03:08;;;;;;;1.75;0.60;;;24.20;90.80;;;;;;5033345;28;20214;-41
2022/06/28 13:05:37;;;;;;;0.80;0.55;;;24.50;87.90;;;;;;5024111;28;21314;-39